Time;durP1;ratioP1;P1;durP2;ratioP2;P2;SDS_P1;SDS_P2;PMS_P1;PMS_P2;Temp;Humidity;BMP_temperature;BMP_pressure;BME280_temperature;BME280_humidity;BME280_pressure;Samples;Min_cycle;Max_cycle;Signal;HPM_P1;HPM_P2
2022/04/09 00:01:26;;;;;;;;;;;;;;;14.54;49.56;98656.47;4941204;28;128855;-61
2022/04/09 00:03:52;;;;;;;;;;;;;;;14.53;49.73;98654.91;4943169;28;97972;-61
2022/04/09 00:06:18;;;;;;;;;;;;;;;14.52;49.65;98664.97;4942203;28;117628;-62
2022/04/09 00:08:44;;;;;;;;;;;;;;;14.51;49.95;98676.94;4941493;28;127134;-62
2022/04/09 00:11:10;;;;;;;;;;;;;;;14.49;49.63;98682.69;4940854;28;125862;-61
2022/04/09 00:13:36;;;;;;;;;;;;;;;14.49;49.79;98685.41;4942996;28;97962;-61
2022/04/09 00:16:02;;;;;;;;;;;;;;;14.49;50.04;98692.75;4957897;28;98691;-62
2022/04/09 00:18:28;;;;;;;;;;;;;;;14.48;49.86;98699.25;4942118;28;119383;-61
2022/04/09 00:20:54;;;;;;;;;;;;;;;14.47;49.68;98697.69;4941422;28;126249;-62
2022/04/09 00:23:20;;;;;;;;;;;;;;;14.47;50.04;98694.97;4942548;28;98218;-61
2022/04/09 00:25:46;;;;;;;;;;;;;;;14.46;49.85;98696.91;4942003;28;117399;-62
2022/04/09 00:28:12;;;;;;;;;;;;;;;14.46;49.68;98696.09;4942221;28;98291;-61
2022/04/09 00:30:38;;;;;;;;;;;;;;;14.44;49.93;98696.44;4942626;28;99387;-61
2022/04/09 00:33:04;;;;;;;;;;;;;;;14.43;49.79;98702.19;4941857;28;98326;-61
2022/04/09 00:35:30;;;;;;;;;;;;;;;14.43;50.05;98705.69;4943317;28;97761;-62
2022/04/09 00:37:56;;;;;;;;;;;;;;;14.43;49.71;98702.19;4939947;28;125979;-61
2022/04/09 00:40:24;;;;;;;;;;;;;;;14.41;49.86;98702.50;4940998;28;128423;-61
2022/04/09 00:42:50;;;;;;;;;;;;;;;14.40;50.08;98694.72;4942098;28;98658;-61
2022/04/09 00:45:16;;;;;;;;;;;;;;;14.39;50.14;98704.78;4942139;28;116110;-61
2022/04/09 00:47:42;;;;;;;;;;;;;;;14.39;49.84;98704.78;4940551;28;119143;-61
2022/04/09 00:50:09;;;;;;;;;;;;;;;14.39;49.98;98710.19;4955900;28;128917;-61
2022/04/09 00:52:38;;;;;;;;;;;;;;;14.37;50.12;98707.03;4940998;28;116701;-61
2022/04/09 00:55:04;;;;;;;;;;;;;;;14.38;50.13;98718.66;4957110;28;97889;-62
2022/04/09 00:57:34;;;;;;;;;;;;;;;14.37;50.12;98727.91;4941918;28;98918;-61
2022/04/09 01:00:01;;;;;;;;;;;;;;;14.36;50.10;98729.84;4942137;28;98288;-61
2022/04/09 01:02:27;;;;;;;;;;;;;;;14.35;50.02;98727.47;4940377;28;98643;-61
2022/04/09 01:04:53;;;;;;;;;;;;;;;14.34;50.16;98715.81;4939348;28;117431;-61
2022/04/09 01:07:19;;;;;;;;;;;;;;;14.34;50.17;98734.78;4955122;28;127634;-61
2022/04/09 01:09:45;;;;;;;;;;;;;;;14.33;49.83;98738.63;4938869;28;120954;-62
2022/04/09 01:12:13;;;;;;;;;;;;;;;14.33;50.34;98727.00;4941872;28;98098;-61
2022/04/09 01:14:38;;;;;;;;;;;;;;;14.31;50.18;98732.75;4955410;28;114900;-61
2022/04/09 01:17:04;;;;;;;;;;;;;;;14.30;50.02;98747.41;4940674;28;127698;-61
2022/04/09 01:19:30;;;;;;;;;;;;;;;14.30;50.19;98752.06;4938460;28;127507;-61
2022/04/09 01:22:00;;;;;;;;;;;;;;;14.29;50.31;98745.06;4941220;28;122534;-61
2022/04/09 01:24:26;;;;;;;;;;;;;;;14.29;50.14;98750.47;4941457;28;97800;-62
2022/04/09 01:26:52;;;;;;;;;;;;;;;14.28;50.26;98757.81;4940699;28;129022;-61
2022/04/09 01:29:18;;;;;;;;;;;;;;;14.28;50.17;98743.47;4938751;28;126723;-61
2022/04/09 01:31:44;;;;;;;;;;;;;;;14.27;49.96;98752.75;4941191;28;127073;-61
2022/04/09 01:34:12;;;;;;;;;;;;;;;14.25;50.35;98759.25;4940826;28;115273;-61
2022/04/09 01:36:38;;;;;;;;;;;;;;;14.25;50.07;98756.56;4938756;28;121839;-61
2022/04/09 01:39:04;;;;;;;;;;;;;;;14.25;50.30;98761.19;4941033;28;98627;-61
2022/04/09 01:41:30;;;;;;;;;;;;;;;14.23;50.29;98769.66;4962360;28;125154;-61
2022/04/09 01:43:58;;;;;;;;;;;;;;;14.24;50.03;98775.88;4941490;28;97790;-61
2022/04/09 01:46:24;;;;;;;;;;;;;;;14.22;50.12;98773.47;4940947;28;102569;-61
2022/04/09 01:48:50;;;;;;;;;;;;;;;14.21;49.93;98788.16;4940649;28;127341;-61
2022/04/09 01:51:16;;;;;;;;;;;;;;;14.21;49.83;98785.44;4940479;28;98302;-61
2022/04/09 01:53:42;;;;;;;;;;;;;;;14.21;50.42;98790.06;4940515;28;116620;-61
2022/04/09 01:56:08;;;;;;;;;;;;;;;14.19;50.06;98790.41;4939429;28;128437;-61
2022/04/09 01:58:34;;;;;;;;;;;;;;;14.19;50.28;98797.75;4940680;28;126885;-61
2022/04/09 02:00:59;;;;;;;;;;;;;;;14.18;50.33;98793.44;4940270;28;127572;-61
2022/04/09 02:03:26;;;;;;;;;;;;;;;14.17;50.42;98802.69;4939869;28;117048;-61
2022/04/09 02:05:52;;;;;;;;;;;;;;;14.17;50.28;98798.06;4941269;28;99373;-62
2022/04/09 02:08:18;;;;;;;;;;;;;;;14.17;50.12;98799.97;4940339;28;123697;-61
2022/04/09 02:10:44;;;;;;;;;;;;;;;14.15;50.44;98805.75;4940591;28;113277;-62
2022/04/09 02:13:13;;;;;;;;;;;;;;;14.14;50.14;98814.97;4940452;28;117970;-61
2022/04/09 02:15:39;;;;;;;;;;;;;;;14.13;50.56;98826.94;4939036;28;128854;-61
2022/04/09 02:18:05;;;;;;;;;;;;;;;14.13;50.10;98828.88;4940092;28;127751;-61
2022/04/09 02:20:33;;;;;;;;;;;;;;;14.11;50.26;98826.50;4939653;28;128894;-61
2022/04/09 02:22:59;;;;;;;;;;;;;;;14.10;50.39;98833.03;4941147;28;97763;-61
2022/04/09 02:25:24;;;;;;;;;;;;;;;14.08;50.56;98842.63;4939202;28;128773;-61
2022/04/09 02:27:50;;;;;;;;;;;;;;;14.08;50.33;98834.50;4940135;28;128043;-61
2022/04/09 02:30:16;;;;;;;;;;;;;;;14.06;50.36;98842.13;4939905;28;127034;-61
2022/04/09 02:32:48;;;;;;;;;;;;;;;14.05;50.34;98848.69;4941401;28;97713;-61
2022/04/09 02:35:15;;;;;;;;;;;;;;;14.03;50.60;98849.03;4939332;28;98905;-61
2022/04/09 02:37:40;;;;;;;;;;;;;;;14.02;50.58;98843.91;4941163;28;99061;-61
2022/04/09 02:40:07;;;;;;;;;;;;;;;14.01;50.57;98843.13;4939404;28;125641;-61
2022/04/09 02:42:36;;;;;;;;;;;;;;;14.00;50.43;98852.38;4937739;28;97850;-61
2022/04/09 02:45:02;;;;;;;;;;;;;;;13.99;50.61;98856.22;4939687;28;98772;-61
2022/04/09 02:47:28;;;;;;;;;;;;;;;13.98;50.39;98860.03;4939566;28;122687;-61
2022/04/09 02:49:54;;;;;;;;;;;;;;;13.95;50.47;98864.22;4940072;28;127699;-61
2022/04/09 02:52:20;;;;;;;;;;;;;;;13.94;50.22;98870.72;4932360;28;116298;-61
2022/04/09 02:54:46;;;;;;;;;;;;;;;13.93;50.44;98874.56;4940403;28;99181;-61
2022/04/09 02:57:13;;;;;;;;;;;;;;;13.92;50.58;98878.41;4940183;28;98449;-62
2022/04/09 02:59:39;;;;;;;;;;;;;;;13.92;50.62;98883.03;4940213;28;97842;-61
2022/04/09 03:02:04;;;;;;;;;;;;;;;13.90;50.68;98887.97;4941901;28;115936;-61
2022/04/09 03:04:30;;;;;;;;;;;;;;;13.90;50.56;98896.09;4942473;28;128349;-61
2022/04/09 03:06:56;;;;;;;;;;;;;;;13.89;50.53;98900.72;4942859;28;127323;-61
2022/04/09 03:09:22;;;;;;;;;;;;;;;13.88;50.50;98911.88;4944242;28;98243;-61
2022/04/09 03:11:48;;;;;;;;;;;;;;;13.86;50.58;98923.03;4943020;28;115624;-62
2022/04/09 03:14:14;;;;;;;;;;;;;;;13.85;50.66;98932.28;4942768;28;128608;-61
2022/04/09 03:16:40;;;;;;;;;;;;;;;13.85;50.70;98926.88;4942377;28;128259;-61
2022/04/09 03:19:06;;;;;;;;;;;;;;;13.83;50.93;98937.22;4957612;28;127288;-61
2022/04/09 03:21:32;;;;;;;;;;;;;;;13.82;50.85;98943.75;4940870;28;117497;-61
2022/04/09 03:23:58;;;;;;;;;;;;;;;13.80;50.75;98948.72;4943851;28;98699;-61
2022/04/09 03:26:23;;;;;;;;;;;;;;;13.80;50.83;98956.84;4942007;28;128037;-61
2022/04/09 03:28:49;;;;;;;;;;;;;;;13.79;50.64;98965.28;4942232;28;127275;-62
2022/04/09 03:31:16;;;;;;;;;;;;;;;13.76;50.66;98964.03;4942889;28;100455;-61
2022/04/09 03:33:42;;;;;;;;;;;;;;;13.75;50.58;98970.53;4943290;28;98206;-61
2022/04/09 03:36:08;;;;;;;;;;;;;;;13.73;50.82;98972.78;4956787;28;127196;-62
2022/04/09 03:38:34;;;;;;;;;;;;;;;13.73;50.80;98980.91;4942605;28;98486;-62
2022/04/09 03:41:00;;;;;;;;;;;;;;;13.70;50.94;98993.19;4940117;28;116318;-62
2022/04/09 03:43:26;;;;;;;;;;;;;;;13.69;50.65;98993.53;4943176;28;98452;-63
2022/04/09 03:45:52;;;;;;;;;;;;;;;13.68;50.88;98994.66;4943129;28;98456;-61
2022/04/09 03:48:17;;;;;;;;;;;;;;;13.66;50.95;98994.16;4942004;28;125827;-61
2022/04/09 03:50:43;;;;;;;;;;;;;;;13.65;50.66;99000.69;4942248;28;117479;-61
2022/04/09 03:53:09;;;;;;;;;;;;;;;13.64;50.98;99008.03;4934758;28;128362;-61
2022/04/09 03:55:35;;;;;;;;;;;;;;;13.62;50.81;99010.25;4942133;28;128536;-61
2022/04/09 03:58:01;;;;;;;;;;;;;;;13.62;50.99;99010.25;4943553;28;100642;-62
2022/04/09 04:00:27;;;;;;;;;;;;;;;13.61;51.01;99016.78;4941703;28;116545;-61
2022/04/09 04:02:54;;;;;;;;;;;;;;;13.61;50.67;99024.91;4943004;28;98692;-61
2022/04/09 04:05:20;;;;;;;;;;;;;;;13.59;50.78;99032.53;4942191;28;98917;-61
2022/04/09 04:07:46;;;;;;;;;;;;;;;13.58;50.82;99030.97;4941770;28;127744;-61
2022/04/09 04:10:13;;;;;;;;;;;;;;;13.58;51.04;99035.59;4957523;28;98509;-61
2022/04/09 04:12:40;;;;;;;;;;;;;;;13.56;50.78;99049.44;4942037;28;99336;-62
2022/04/09 04:15:07;;;;;;;;;;;;;;;13.57;50.83;99052.94;4942913;28;98798;-62
2022/04/09 04:17:43;;;;;;;;;;;;;;;13.57;50.86;99063.78;4942641;28;99036;-62
2022/04/09 04:20:10;;;;;;;;;;;;;;;13.56;50.77;99070.28;4943196;28;98060;-62
2022/04/09 04:22:36;;;;;;;;;;;;;;;13.54;50.94;99078.75;4943578;28;98233;-62
2022/04/09 04:25:05;;;;;;;;;;;;;;;13.54;50.91;99081.44;4941987;28;108343;-63
2022/04/09 04:27:31;;;;;;;;;;;;;;;13.54;50.96;99086.06;4942430;28;98217;-62
2022/04/09 04:30:01;;;;;;;;;;;;;;;13.54;50.94;99096.91;4941768;28;102436;-62
2022/04/09 04:32:27;;;;;;;;;;;;;;;13.53;51.09;99109.66;4942557;28;99233;-62
2022/04/09 04:34:53;;;;;;;;;;;;;;;13.54;50.99;99121.25;4942262;28;108993;-63
2022/04/09 04:37:18;;;;;;;;;;;;;;;13.52;51.11;99129.72;4941363;28;128142;-62
2022/04/09 04:39:44;;;;;;;;;;;;;;;13.53;50.93;99133.22;4941274;28;116739;-62
2022/04/09 04:42:10;;;;;;;;;;;;;;;13.53;50.87;99133.22;4942246;28;99044;-63
2022/04/09 04:44:36;;;;;;;;;;;;;;;13.52;51.04;99145.97;4941704;28;98835;-62
2022/04/09 04:47:02;;;;;;;;;;;;;;;13.53;50.83;99147.53;4939336;28;126973;-61
2022/04/09 04:49:28;;;;;;;;;;;;;;;13.54;51.00;99159.16;4941980;28;115044;-61
2022/04/09 04:51:54;;;;;;;;;;;;;;;13.57;50.90;99156.63;4936244;28;126480;-62
2022/04/09 04:54:20;;;;;;;;;;;;;;;13.61;50.92;99162.19;4935448;28;117724;-62
2022/04/09 04:56:46;;;;;;;;;;;;;;;13.63;50.68;99168.06;4942113;28;98489;-62
2022/04/09 04:59:12;;;;;;;;;;;;;;;13.66;50.96;99173.66;4941003;28;116417;-62
2022/04/09 05:01:40;;;;;;;;;;;;;;;13.68;50.78;99176.84;4941373;28;128388;-62
2022/04/09 05:04:06;;;;;;;;;;;;;;;13.70;50.85;99192.75;4942059;28;98674;-62
2022/04/09 05:06:32;;;;;;;;;;;;;;;13.73;50.69;99200.25;4941620;28;97811;-61
2022/04/09 05:08:58;;;;;;;;;;;;;;;13.78;50.80;99210.13;4955922;28;118096;-62
2022/04/09 05:11:24;;;;;;;;;;;;;;;13.80;50.87;99210.63;4939172;28;119397;-61
2022/04/09 05:13:50;;;;;;;;;;;;;;;13.82;50.89;99209.16;4942331;28;98616;-61
2022/04/09 05:16:16;;;;;;;;;;;;;;;13.84;50.86;99217.78;4952849;28;127798;-61
2022/04/09 05:18:42;;;;;;;;;;;;;;;13.83;50.75;99224.31;4935513;28;116747;-61
2022/04/09 05:21:08;;;;;;;;;;;;;;;13.86;50.74;99234.50;4934904;28;127940;-61
2022/04/09 05:23:33;;;;;;;;;;;;;;;13.89;50.59;99238.50;4938021;28;112639;-61
2022/04/09 05:25:59;;;;;;;;;;;;;;;13.90;50.98;99246.28;4937628;28;98584;-61
2022/04/09 05:28:25;;;;;;;;;;;;;;;13.92;50.63;99249.50;4953247;28;98015;-61
2022/04/09 05:30:51;;;;;;;;;;;;;;;13.94;50.56;99254.59;4938178;28;99198;-62
2022/04/09 05:33:18;;;;;;;;;;;;;;;13.95;50.83;99258.88;4937826;28;97805;-61
2022/04/09 05:35:44;;;;;;;;;;;;;;;13.96;50.89;99282.16;4936549;28;126186;-61
2022/04/09 05:38:10;;;;;;;;;;;;;;;13.94;50.83;99277.03;4939215;28;98660;-61
2022/04/09 05:40:37;;;;;;;;;;;;;;;13.95;50.91;99286.78;4932418;28;98604;-62
2022/04/09 05:43:03;;;;;;;;;;;;;;;13.97;50.59;99287.25;4933798;28;98689;-61
2022/04/09 05:45:29;;;;;;;;;;;;;;;14.02;50.66;99299.06;4936968;28;127173;-62
2022/04/09 05:47:55;;;;;;;;;;;;;;;14.08;50.45;99303.22;4936692;28;118166;-62
2022/04/09 05:50:21;;;;;;;;;;;;;;;14.11;50.70;99308.78;4936443;28;127029;-62
2022/04/09 05:52:49;;;;;;;;;;;;;;;14.17;50.63;99314.84;4938043;28;99851;-62
2022/04/09 05:55:17;;;;;;;;;;;;;;;14.32;50.30;99317.06;4937336;28;98024;-62
2022/04/09 05:57:42;;;;;;;;;;;;;;;14.48;50.04;99326.31;4937185;28;97728;-62
2022/04/09 06:00:09;;;;;;;;;;;;;;;14.52;50.14;99331.13;4938083;28;98770;-62
2022/04/09 06:02:37;;;;;;;;;;;;;;;14.58;50.52;99329.81;4951879;28;98760;-62
2022/04/09 06:05:03;;;;;;;;;;;;;;;14.68;50.23;99341.16;4938267;28;98193;-62
2022/04/09 06:07:30;;;;;;;;;;;;;;;14.84;49.83;99343.34;4937007;28;110518;-62
2022/04/09 06:09:56;;;;;;;;;;;;;;;14.95;49.73;99344.63;4937262;28;99096;-63
2022/04/09 06:12:22;;;;;;;;;;;;;;;15.01;50.15;99353.38;4937052;28;122068;-63
2022/04/09 06:14:48;;;;;;;;;;;;;;;15.04;49.70;99358.94;4936418;28;123152;-63
2022/04/09 06:17:14;;;;;;;;;;;;;;;15.05;50.11;99368.69;4935931;28;116645;-63
2022/04/09 06:19:40;;;;;;;;;;;;;;;15.11;50.33;99366.59;4936522;28;126846;-62
2022/04/09 06:22:06;;;;;;;;;;;;;;;15.16;50.23;99375.34;4937113;28;114881;-62
2022/04/09 06:24:32;;;;;;;;;;;;;;;15.16;50.25;99380.00;4935974;28;126905;-63
2022/04/09 06:26:58;;;;;;;;;;;;;;;15.19;50.20;99385.56;4935950;28;116813;-62
2022/04/09 06:29:24;;;;;;;;;;;;;;;15.34;50.01;99392.41;4935945;28;99223;-62
2022/04/09 06:31:50;;;;;;;;;;;;;;;15.36;49.93;99387.41;4950669;28;127944;-63
2022/04/09 06:34:17;;;;;;;;;;;;;;;15.57;49.77;99394.88;4936855;28;97789;-66
2022/04/09 06:36:43;;;;;;;;;;;;;;;15.61;49.68;99393.91;4937124;28;98598;-62
2022/04/09 06:39:09;;;;;;;;;;;;;;;15.81;49.75;99397.81;4943643;28;126525;-63
2022/04/09 06:41:35;;;;;;;;;;;;;;;16.30;48.93;99403.59;4937556;28;100946;-63
2022/04/09 06:44:01;;;;;;;;;;;;;;;16.73;48.54;99409.81;4937048;28;97972;-63
2022/04/09 06:46:27;;;;;;;;;;;;;;;17.01;48.37;99415.50;4938886;28;98146;-63
2022/04/09 06:48:53;;;;;;;;;;;;;;;17.60;47.71;99415.97;4935966;28;127894;-63
2022/04/09 06:51:18;;;;;;;;;;;;;;;17.40;48.45;99414.94;4936090;28;127410;-63
2022/04/09 06:53:44;;;;;;;;;;;;;;;17.20;48.87;99423.19;4955038;28;128336;-63
2022/04/09 06:56:10;;;;;;;;;;;;;;;17.01;49.25;99420.97;4941912;28;116842;-62
2022/04/09 06:58:36;;;;;;;;;;;;;;;16.85;49.52;99428.94;4936112;28;126335;-62
2022/04/09 07:01:02;;;;;;;;;;;;;;;16.67;49.86;99431.81;4935611;28;128464;-63
2022/04/09 07:03:28;;;;;;;;;;;;;;;16.54;49.80;99434.78;4935842;28;125490;-63
2022/04/09 07:05:54;;;;;;;;;;;;;;;16.42;50.01;99466.22;4936716;28;97977;-62
2022/04/09 07:08:20;;;;;;;;;;;;;;;16.34;49.99;99467.06;4935486;28;128484;-62
2022/04/09 07:10:46;;;;;;;;;;;;;;;16.33;50.02;99459.25;4937108;28;102911;-62
2022/04/09 07:13:12;;;;;;;;;;;;;;;16.57;49.60;99459.38;4937360;28;128634;-62
2022/04/09 07:15:38;;;;;;;;;;;;;;;17.00;48.92;99462.94;4935816;28;117156;-62
2022/04/09 07:18:04;;;;;;;;;;;;;;;17.21;48.76;99462.88;4937182;28;110534;-62
2022/04/09 07:20:30;;;;;;;;;;;;;;;17.46;48.55;99461.03;4936552;28;100506;-61
2022/04/09 07:22:56;;;;;;;;;;;;;;;17.52;48.65;99476.03;4937098;28;105254;-62
2022/04/09 07:25:22;;;;;;;;;;;;;;;18.01;48.09;99481.59;4933418;28;97866;-62
2022/04/09 07:27:48;;;;;;;;;;;;;;;18.33;47.68;99477.13;4934614;28;128649;-61
2022/04/09 07:30:18;;;;;;;;;;;;;;;18.59;47.70;99479.50;4930033;28;128229;-61
2022/04/09 07:32:45;;;;;;;;;;;;;;;19.06;46.98;99485.19;4929992;28;98530;-62
2022/04/09 07:35:11;;;;;;;;;;;;;;;18.98;47.30;99488.84;4936931;28;97911;-63
2022/04/09 07:37:47;;;;;;;;;;;;;;;19.11;47.47;99506.78;4935981;28;98992;-62
2022/04/09 07:40:14;;;;;;;;;;;;;;;19.43;47.11;99503.34;4936836;28;98786;-62
2022/04/09 07:42:41;;;;;;;;;;;;;;;19.45;47.32;99501.03;4935644;28;113184;-62
2022/04/09 07:45:07;;;;;;;;;;;;;;;19.59;46.87;99510.41;4936630;28;117754;-62
2022/04/09 07:47:33;;;;;;;;;;;;;;;19.48;47.31;99506.59;4927351;28;128333;-62
2022/04/09 07:50:02;;;;;;;;;;;;;;;19.28;47.98;99529.47;4940132;28;98561;-62
2022/04/09 07:52:29;;;;;;;;;;;;;;;19.27;47.86;99509.56;4939874;28;98628;-62
2022/04/09 07:54:57;;;;;;;;;;;;;;;19.66;47.28;99520.00;4939871;28;97798;-62
2022/04/09 07:57:27;;;;;;;;;;;;;;;20.64;45.81;99517.31;4938658;28;98994;-63
2022/04/09 07:59:55;;;;;;;;;;;;;;;21.51;44.80;99520.66;4938628;28;115158;-62
2022/04/09 08:02:21;;;;;;;;;;;;;;;21.30;45.55;99524.56;4934184;28;97972;-62
2022/04/09 08:04:47;;;;;;;;;;;;;;;21.55;45.52;99527.00;4940685;28;97810;-62
2022/04/09 08:07:13;;;;;;;;;;;;;;;21.73;45.48;99541.84;4938295;28;120613;-62
2022/04/09 08:09:39;;;;;;;;;;;;;;;21.35;46.22;99534.47;4938241;28;127727;-62
2022/04/09 08:12:05;;;;;;;;;;;;;;;20.87;47.05;99541.25;4938474;28;97946;-62
2022/04/09 08:14:33;;;;;;;;;;;;;;;20.45;47.55;99545.41;4938725;28;97832;-62
2022/04/09 08:16:59;;;;;;;;;;;;;;;20.15;47.75;99541.53;4938189;28;98433;-62
2022/04/09 08:19:25;;;;;;;;;;;;;;;20.06;47.82;99547.19;4937311;28;99214;-62
2022/04/09 08:21:52;;;;;;;;;;;;;;;20.24;47.45;99551.16;4937042;28;121092;-62
2022/04/09 08:24:18;;;;;;;;;;;;;;;22.12;44.27;99544.44;4940100;28;98295;-62
2022/04/09 08:26:43;;;;;;;;;;;;;;;21.63;45.61;99544.38;4938034;28;114797;-62
2022/04/09 08:29:15;;;;;;;;;;;;;;;21.48;45.94;99543.31;4938643;28;128133;-62
2022/04/09 08:31:41;;;;;;;;;;;;;;;24.79;41.13;99545.97;4939533;28;97993;-62
2022/04/09 08:34:07;;;;;;;;;;;;;;;24.91;41.82;99548.38;4939327;28;98096;-62
2022/04/09 08:36:33;;;;;;;;;;;;;;;27.49;39.03;99552.03;4937055;28;128262;-62
2022/04/09 08:38:59;;;;;;;;;;;;;;;29.00;38.34;99568.25;4938064;28;128486;-62
2022/04/09 08:41:24;;;;;;;;;;;;;;;29.14;38.85;99565.34;4953133;28;98140;-62
2022/04/09 08:43:50;;;;;;;;;;;;;;;31.81;36.25;99569.50;4920002;28;117055;-62
2022/04/09 08:46:16;;;;;;;;;;;;;;;31.90;36.83;99566.94;4937540;28;127518;-62
2022/04/09 08:48:42;;;;;;;;;;;;;;;30.43;39.18;99567.06;4938893;28;128122;-62
2022/04/09 08:51:08;;;;;;;;;;;;;;;29.18;40.58;99556.97;4919708;28;98320;-62
2022/04/09 08:53:34;;;;;;;;;;;;;;;27.97;41.88;99556.91;4944073;28;114739;-62
2022/04/09 08:56:00;;;;;;;;;;;;;;;26.95;42.68;99570.78;4935774;28;128192;-62
2022/04/09 08:58:26;;;;;;;;;;;;;;;26.02;43.45;99579.16;4936982;28;128147;-62
2022/04/09 09:00:52;;;;;;;;;;;;;;;25.16;43.58;99587.16;4937492;28;128967;-62
2022/04/09 09:03:18;;;;;;;;;;;;;;;24.39;44.01;99596.47;4938464;28;99610;-62
2022/04/09 09:05:52;;;;;;;;;;;;;;;23.84;44.23;99574.31;4936201;28;127912;-62
2022/04/09 09:08:36;;;;;;;;;;;;;;;25.74;40.95;99566.03;4938596;28;98343;-62
2022/04/09 09:11:02;;;;;;;;;;;;;;;26.68;39.91;99573.22;4934220;28;98071;-62
2022/04/09 09:13:28;;;;;;;;;;;;;;;29.81;36.23;99562.88;4937990;28;118605;-63
2022/04/09 09:15:55;;;;;;;;;;;;;;;32.05;34.52;99573.72;4937607;28;127282;-63
2022/04/09 09:18:28;;;;;;;;;;;;;;;33.11;33.88;99574.22;4938270;28;98256;-62
2022/04/09 09:20:56;;;;;;;;;;;;;;;32.11;36.21;99574.78;4938590;28;108994;-62
2022/04/09 09:23:27;;;;;;;;;;;;;;;31.29;37.40;99569.06;4938042;28;97871;-62
2022/04/09 09:25:54;;;;;;;;;;;;;;;29.97;39.35;99562.25;4937297;28;125395;-62
2022/04/09 09:28:28;;;;;;;;;;;;;;;28.92;40.33;99566.75;4935927;28;98718;-62
2022/04/09 09:30:54;;;;;;;;;;;;;;;27.92;40.76;99578.69;4935834;28;98586;-62
2022/04/09 09:33:20;;;;;;;;;;;;;;;27.01;41.22;99599.63;4939033;28;98102;-62
2022/04/09 09:35:56;;;;;;;;;;;;;;;26.18;41.59;99601.66;4936473;28;98653;-62
2022/04/09 09:38:29;;;;;;;;;;;;;;;25.83;41.48;99590.56;4937774;28;98468;-62
2022/04/09 09:40:59;;;;;;;;;;;;;;;29.82;35.73;99592.22;4935533;28;98278;-62
2022/04/09 09:43:25;;;;;;;;;;;;;;;29.01;37.15;99601.16;4938330;28;97914;-62
2022/04/09 09:45:53;;;;;;;;;;;;;;;29.54;37.00;99594.16;4940183;28;98942;-62
2022/04/09 09:48:26;;;;;;;;;;;;;;;30.09;36.75;99595.75;4936352;28;125082;-62
2022/04/09 09:50:53;;;;;;;;;;;;;;;29.62;37.16;99578.22;4936683;28;98400;-63
2022/04/09 09:53:34;;;;;;;;;;;;;;;32.87;33.89;99584.81;4938398;28;114056;-62
2022/04/09 09:56:01;;;;;;;;;;;;;;;35.66;31.31;99590.50;4936841;28;100342;-63
2022/04/09 09:58:28;;;;;;;;;;;;;;;37.45;30.19;99588.56;4951675;28;98421;-62
2022/04/09 10:00:58;;;;;;;;;;;;;;;38.72;29.76;99596.84;4938111;28;97881;-63
2022/04/09 10:03:24;;;;;;;;;;;;;;;39.73;29.48;99588.19;4933267;28;98062;-63
2022/04/09 10:05:50;;;;;;;;;;;;;;;40.58;29.37;99580.91;4936460;28;98914;-63
2022/04/09 10:08:19;;;;;;;;;;;;;;;41.36;28.98;99580.97;4936314;28;98838;-63
2022/04/09 10:10:50;;;;;;;;;;;;;;;42.22;28.70;99590.31;4936258;28;98183;-63
2022/04/09 10:13:20;;;;;;;;;;;;;;;43.21;27.78;99584.00;4951249;28;97829;-63
2022/04/09 10:15:47;;;;;;;;;;;;;;;44.02;27.46;99577.25;4937359;28;98659;-63
2022/04/09 10:18:13;;;;;;;;;;;;;;;44.81;26.80;99566.34;4937066;28;98598;-63
2022/04/09 10:20:39;;;;;;;;;;;;;;;45.43;26.73;99571.59;4936123;28;128329;-62
2022/04/09 10:23:06;;;;;;;;;;;;;;;44.73;27.24;99561.75;4934782;28;98126;-63
2022/04/09 10:25:32;;;;;;;;;;;;;;;43.30;28.35;99556.16;4937841;28;98287;-63
2022/04/09 10:28:02;;;;;;;;;;;;;;;40.62;30.95;99548.38;4931201;28;98838;-63
2022/04/09 10:30:28;;;;;;;;;;;;;;;38.55;32.16;99551.47;4935159;28;113834;-63
2022/04/09 10:32:56;;;;;;;;;;;;;;;38.97;31.34;99556.13;4936560;28;97953;-62
2022/04/09 10:35:22;;;;;;;;;;;;;;;39.87;29.77;99549.94;4936518;28;98004;-63
2022/04/09 10:38:07;;;;;;;;;;;;;;;41.56;27.82;99552.63;4936020;28;99044;-63
2022/04/09 10:40:45;;;;;;;;;;;;;;;42.51;27.35;99560.09;4937174;28;97875;-63
2022/04/09 10:43:40;;;;;;;;;;;;;;;43.05;26.68;99552.25;4934846;28;98011;-63
2022/04/09 10:46:06;;;;;;;;;;;;;;;43.92;26.68;99558.19;4943148;28;98370;-63
2022/04/09 10:48:36;;;;;;;;;;;;;;;44.51;25.92;99554.09;4936818;28;99119;-63
2022/04/09 10:51:05;;;;;;;;;;;;;;;43.43;27.07;99543.50;4936169;28;127502;-63
2022/04/09 10:53:34;;;;;;;;;;;;;;;41.73;28.45;99546.31;4943959;28;97908;-63
2022/04/09 10:56:13;;;;;;;;;;;;;;;40.46;29.50;99546.13;4935626;28;128371;-62
2022/04/09 10:58:59;;;;;;;;;;;;;;;38.84;30.62;99538.75;4935795;28;98048;-63
2022/04/09 11:01:47;;;;;;;;;;;;;;;37.64;30.92;99549.94;4936412;28;100179;-63
2022/04/09 11:04:37;;;;;;;;;;;;;;;36.04;31.87;99552.97;4936352;28;97919;-62
2022/04/09 11:07:18;;;;;;;;;;;;;;;36.67;30.64;99565.56;4936941;28;98611;-63
2022/04/09 11:09:46;;;;;;;;;;;;;;;37.74;29.56;99569.09;4937052;28;98557;-62
2022/04/09 11:12:12;;;;;;;;;;;;;;;38.39;29.20;99565.97;4936234;28;98338;-63
2022/04/09 11:14:48;;;;;;;;;;;;;;;36.79;30.43;99572.25;4936822;28;115524;-62
2022/04/09 11:17:19;;;;;;;;;;;;;;;38.11;29.19;99573.78;4936231;28;98557;-62
2022/04/09 11:19:45;;;;;;;;;;;;;;;39.31;27.63;99580.06;4937630;28;99307;-63
2022/04/09 11:22:11;;;;;;;;;;;;;;;37.34;29.89;99578.59;4936851;28;97972;-62
2022/04/09 11:24:38;;;;;;;;;;;;;;;36.68;30.21;99572.72;4939752;28;116247;-63
2022/04/09 11:27:04;;;;;;;;;;;;;;;36.59;30.41;99590.34;4939442;28;99443;-62
2022/04/09 11:29:33;;;;;;;;;;;;;;;35.97;30.45;99581.28;4954155;28;121590;-63
2022/04/09 11:31:59;;;;;;;;;;;;;;;34.95;31.50;99579.91;4939350;28;113085;-62
2022/04/09 11:34:26;;;;;;;;;;;;;;;35.38;30.72;99573.53;4954716;28;101129;-63
2022/04/09 11:37:12;;;;;;;;;;;;;;;36.25;29.55;99571.72;4934670;28;97836;-63
2022/04/09 11:39:42;;;;;;;;;;;;;;;35.81;30.19;99571.88;4933455;28;98103;-62
2022/04/09 11:42:08;;;;;;;;;;;;;;;36.30;29.91;99590.72;4939207;28;99317;-63
2022/04/09 11:44:35;;;;;;;;;;;;;;;36.63;29.84;99584.59;4940015;28;98086;-62
2022/04/09 11:47:16;;;;;;;;;;;;;;;36.89;29.47;99575.84;4944458;28;98601;-62
2022/04/09 11:49:42;;;;;;;;;;;;;;;37.19;29.43;99580.50;4939588;28;98970;-62
2022/04/09 11:52:08;;;;;;;;;;;;;;;37.47;29.32;99591.69;4943665;28;98087;-62
2022/04/09 11:54:35;;;;;;;;;;;;;;;37.84;28.92;99586.69;4938803;28;98233;-63
2022/04/09 11:57:02;;;;;;;;;;;;;;;37.83;29.37;99583.13;4933390;28;98704;-62
2022/04/09 11:59:29;;;;;;;;;;;;;;;37.03;30.19;99592.06;4937141;28;125508;-62
2022/04/09 12:01:55;;;;;;;;;;;;;;;36.04;30.86;99589.41;4934721;28;98044;-62
2022/04/09 12:04:22;;;;;;;;;;;;;;;35.50;30.80;99583.13;4940055;28;98264;-63
2022/04/09 12:06:48;;;;;;;;;;;;;;;34.68;31.46;99584.06;4937637;28;98778;-62
2022/04/09 12:09:14;;;;;;;;;;;;;;;34.12;31.78;99597.94;4933083;28;127528;-62
2022/04/09 12:11:50;;;;;;;;;;;;;;;33.74;31.28;99590.31;4939169;28;98119;-62
2022/04/09 12:14:17;;;;;;;;;;;;;;;33.44;31.29;99588.78;4938437;28;112009;-62
2022/04/09 12:16:43;;;;;;;;;;;;;;;32.93;32.00;99592.25;4937944;28;98702;-62
2022/04/09 12:19:09;;;;;;;;;;;;;;;33.59;30.76;99603.13;4938134;28;128030;-62
2022/04/09 12:21:35;;;;;;;;;;;;;;;33.93;30.53;99591.31;4938385;28;98434;-63
2022/04/09 12:24:05;;;;;;;;;;;;;;;33.35;31.48;99595.03;4940105;28;97987;-62
2022/04/09 12:26:32;;;;;;;;;;;;;;;32.90;31.83;99597.88;4938208;28;98004;-62
2022/04/09 12:29:13;;;;;;;;;;;;;;;32.44;32.13;99597.88;4938939;28;107572;-62
2022/04/09 12:31:40;;;;;;;;;;;;;;;31.84;32.38;99586.16;4938708;28;98367;-62
2022/04/09 12:34:06;;;;;;;;;;;;;;;31.33;32.46;99605.16;4938329;28;98305;-62
2022/04/09 12:36:32;;;;;;;;;;;;;;;31.08;32.60;99610.41;4938591;28;99095;-62
2022/04/09 12:38:58;;;;;;;;;;;;;;;31.09;32.21;99615.56;4939066;28;98439;-62
2022/04/09 12:41:24;;;;;;;;;;;;;;;30.47;33.03;99615.03;4938329;28;98738;-62